sensor_id;sensor_type;location;lat;lon;timestamp;P1;durP1;ratioP1;P2;durP2;ratioP2
33830;SDS011;20137;48.834;8.732;2024-02-15T00:00:39;3.03;;;1.10;;
33830;SDS011;20137;48.834;8.732;2024-02-15T00:03:05;3.60;;;1.10;;
33830;SDS011;20137;48.834;8.732;2024-02-15T00:05:32;2.75;;;1.30;;
33830;SDS011;20137;48.834;8.732;2024-02-15T00:08:01;5.40;;;1.48;;
33830;SDS011;20137;48.834;8.732;2024-02-15T00:10:27;5.20;;;1.50;;
33830;SDS011;20137;48.834;8.732;2024-02-15T00:12:53;2.58;;;1.30;;
33830;SDS011;20137;48.834;8.732;2024-02-15T00:15:20;3.50;;;1.52;;
33830;SDS011;20137;48.834;8.732;2024-02-15T00:17:46;2.50;;;1.30;;
33830;SDS011;20137;48.834;8.732;2024-02-15T00:20:12;4.22;;;1.20;;
33830;SDS011;20137;48.834;8.732;2024-02-15T00:22:38;1.65;;;1.10;;
33830;SDS011;20137;48.834;8.732;2024-02-15T00:25:07;3.75;;;1.20;;
33830;SDS011;20137;48.834;8.732;2024-02-15T00:27:36;3.03;;;1.70;;
33830;SDS011;20137;48.834;8.732;2024-02-15T00:30:03;4.78;;;1.33;;
33830;SDS011;20137;48.834;8.732;2024-02-15T00:32:35;2.85;;;1.63;;
33830;SDS011;20137;48.834;8.732;2024-02-15T00:35:04;3.78;;;1.65;;
33830;SDS011;20137;48.834;8.732;2024-02-15T00:37:32;4.00;;;1.70;;
33830;SDS011;20137;48.834;8.732;2024-02-15T00:39:58;3.88;;;1.80;;
33830;SDS011;20137;48.834;8.732;2024-02-15T00:42:24;3.20;;;1.60;;
33830;SDS011;20137;48.834;8.732;2024-02-15T00:44:51;4.07;;;1.60;;
33830;SDS011;20137;48.834;8.732;2024-02-15T00:47:17;3.97;;;1.95;;
33830;SDS011;20137;48.834;8.732;2024-02-15T00:49:46;9.10;;;1.83;;
33830;SDS011;20137;48.834;8.732;2024-02-15T00:52:12;4.00;;;1.52;;
33830;SDS011;20137;48.834;8.732;2024-02-15T00:54:38;4.05;;;1.30;;
33830;SDS011;20137;48.834;8.732;2024-02-15T00:57:04;4.60;;;1.40;;
33830;SDS011;20137;48.834;8.732;2024-02-15T00:59:30;6.53;;;1.33;;
33830;SDS011;20137;48.834;8.732;2024-02-15T01:01:56;4.18;;;1.55;;
33830;SDS011;20137;48.834;8.732;2024-02-15T01:04:22;3.58;;;1.38;;
33830;SDS011;20137;48.834;8.732;2024-02-15T01:06:48;4.68;;;1.45;;
33830;SDS011;20137;48.834;8.732;2024-02-15T01:09:14;2.90;;;1.33;;
33830;SDS011;20137;48.834;8.732;2024-02-15T01:11:40;4.55;;;1.33;;
33830;SDS011;20137;48.834;8.732;2024-02-15T01:14:06;3.10;;;1.38;;
33830;SDS011;20137;48.834;8.732;2024-02-15T01:16:34;3.83;;;1.40;;
33830;SDS011;20137;48.834;8.732;2024-02-15T01:19:01;6.93;;;1.70;;
33830;SDS011;20137;48.834;8.732;2024-02-15T01:21:27;5.90;;;1.80;;
33830;SDS011;20137;48.834;8.732;2024-02-15T01:23:53;2.88;;;1.40;;
33830;SDS011;20137;48.834;8.732;2024-02-15T01:26:19;5.20;;;1.88;;
33830;SDS011;20137;48.834;8.732;2024-02-15T01:28:45;3.42;;;1.52;;
33830;SDS011;20137;48.834;8.732;2024-02-15T01:31:11;7.47;;;1.70;;
33830;SDS011;20137;48.834;8.732;2024-02-15T01:33:37;5.75;;;1.90;;
33830;SDS011;20137;48.834;8.732;2024-02-15T01:36:04;4.88;;;1.45;;
33830;SDS011;20137;48.834;8.732;2024-02-15T01:38:30;6.47;;;1.80;;
33830;SDS011;20137;48.834;8.732;2024-02-15T01:40:56;3.45;;;1.50;;
33830;SDS011;20137;48.834;8.732;2024-02-15T01:43:22;5.78;;;2.25;;
33830;SDS011;20137;48.834;8.732;2024-02-15T01:45:48;6.13;;;1.23;;
33830;SDS011;20137;48.834;8.732;2024-02-15T01:48:17;5.40;;;1.55;;
33830;SDS011;20137;48.834;8.732;2024-02-15T01:50:43;5.40;;;2.00;;
33830;SDS011;20137;48.834;8.732;2024-02-15T01:53:09;6.65;;;2.00;;
33830;SDS011;20137;48.834;8.732;2024-02-15T01:55:37;6.90;;;1.60;;
33830;SDS011;20137;48.834;8.732;2024-02-15T01:58:04;9.70;;;1.83;;
33830;SDS011;20137;48.834;8.732;2024-02-15T02:00:31;3.20;;;1.50;;
33830;SDS011;20137;48.834;8.732;2024-02-15T02:02:57;7.28;;;1.73;;
33830;SDS011;20137;48.834;8.732;2024-02-15T02:05:27;5.13;;;1.40;;
33830;SDS011;20137;48.834;8.732;2024-02-15T02:07:55;7.47;;;1.92;;
33830;SDS011;20137;48.834;8.732;2024-02-15T02:10:26;6.55;;;1.40;;
33830;SDS011;20137;48.834;8.732;2024-02-15T02:12:52;5.20;;;1.70;;
33830;SDS011;20137;48.834;8.732;2024-02-15T02:15:18;3.65;;;1.50;;
33830;SDS011;20137;48.834;8.732;2024-02-15T02:17:50;5.85;;;1.42;;
33830;SDS011;20137;48.834;8.732;2024-02-15T02:20:16;8.60;;;1.70;;
33830;SDS011;20137;48.834;8.732;2024-02-15T02:22:44;4.05;;;1.30;;
33830;SDS011;20137;48.834;8.732;2024-02-15T02:25:12;3.22;;;1.40;;
33830;SDS011;20137;48.834;8.732;2024-02-15T02:27:39;7.05;;;1.55;;
33830;SDS011;20137;48.834;8.732;2024-02-15T02:30:08;8.82;;;1.42;;
33830;SDS011;20137;48.834;8.732;2024-02-15T02:32:40;4.07;;;1.48;;
33830;SDS011;20137;48.834;8.732;2024-02-15T02:35:06;6.15;;;1.65;;
33830;SDS011;20137;48.834;8.732;2024-02-15T02:37:32;5.53;;;1.73;;
33830;SDS011;20137;48.834;8.732;2024-02-15T02:40:02;5.07;;;1.42;;
33830;SDS011;20137;48.834;8.732;2024-02-15T02:42:28;4.72;;;1.83;;
33830;SDS011;20137;48.834;8.732;2024-02-15T02:44:54;5.15;;;1.50;;
33830;SDS011;20137;48.834;8.732;2024-02-15T02:47:20;3.78;;;1.10;;
33830;SDS011;20137;48.834;8.732;2024-02-15T02:49:46;4.68;;;1.20;;
33830;SDS011;20137;48.834;8.732;2024-02-15T02:52:12;3.05;;;1.38;;
33830;SDS011;20137;48.834;8.732;2024-02-15T02:54:38;4.95;;;1.65;;
33830;SDS011;20137;48.834;8.732;2024-02-15T02:57:06;5.07;;;1.30;;
33830;SDS011;20137;48.834;8.732;2024-02-15T02:59:33;3.13;;;1.58;;
33830;SDS011;20137;48.834;8.732;2024-02-15T03:02:00;6.55;;;1.50;;
33830;SDS011;20137;48.834;8.732;2024-02-15T03:04:26;4.75;;;1.80;;
33830;SDS011;20137;48.834;8.732;2024-02-15T03:06:52;2.85;;;1.20;;
33830;SDS011;20137;48.834;8.732;2024-02-15T03:09:20;3.17;;;1.42;;
33830;SDS011;20137;48.834;8.732;2024-02-15T03:11:47;3.45;;;1.35;;
33830;SDS011;20137;48.834;8.732;2024-02-15T03:14:14;3.10;;;1.40;;
33830;SDS011;20137;48.834;8.732;2024-02-15T03:16:40;3.72;;;1.73;;
33830;SDS011;20137;48.834;8.732;2024-02-15T03:19:06;4.70;;;1.63;;
33830;SDS011;20137;48.834;8.732;2024-02-15T03:21:35;5.20;;;1.58;;
33830;SDS011;20137;48.834;8.732;2024-02-15T03:24:02;5.15;;;1.40;;
33830;SDS011;20137;48.834;8.732;2024-02-15T03:26:31;3.60;;;1.65;;
33830;SDS011;20137;48.834;8.732;2024-02-15T03:29:05;3.72;;;1.20;;
33830;SDS011;20137;48.834;8.732;2024-02-15T03:31:32;6.78;;;1.77;;
33830;SDS011;20137;48.834;8.732;2024-02-15T03:34:01;6.53;;;1.60;;
33830;SDS011;20137;48.834;8.732;2024-02-15T03:36:27;2.72;;;1.17;;
33830;SDS011;20137;48.834;8.732;2024-02-15T03:38:54;5.05;;;1.63;;
33830;SDS011;20137;48.834;8.732;2024-02-15T03:41:20;4.78;;;1.70;;
33830;SDS011;20137;48.834;8.732;2024-02-15T03:43:46;3.17;;;1.40;;
33830;SDS011;20137;48.834;8.732;2024-02-15T03:46:12;5.22;;;1.50;;
33830;SDS011;20137;48.834;8.732;2024-02-15T03:48:40;4.45;;;1.40;;
33830;SDS011;20137;48.834;8.732;2024-02-15T03:51:06;3.78;;;1.08;;
33830;SDS011;20137;48.834;8.732;2024-02-15T03:53:34;3.95;;;1.10;;
33830;SDS011;20137;48.834;8.732;2024-02-15T03:56:02;4.70;;;1.38;;
33830;SDS011;20137;48.834;8.732;2024-02-15T03:58:28;3.70;;;1.52;;
33830;SDS011;20137;48.834;8.732;2024-02-15T04:00:57;2.72;;;1.08;;
33830;SDS011;20137;48.834;8.732;2024-02-15T04:03:23;4.57;;;1.23;;
33830;SDS011;20137;48.834;8.732;2024-02-15T04:05:49;3.10;;;1.10;;
33830;SDS011;20137;48.834;8.732;2024-02-15T04:08:15;4.30;;;1.27;;
33830;SDS011;20137;48.834;8.732;2024-02-15T04:10:43;2.60;;;1.10;;
33830;SDS011;20137;48.834;8.732;2024-02-15T04:13:10;5.68;;;1.25;;
33830;SDS011;20137;48.834;8.732;2024-02-15T04:15:36;6.53;;;1.40;;
33830;SDS011;20137;48.834;8.732;2024-02-15T04:18:03;3.70;;;1.30;;
33830;SDS011;20137;48.834;8.732;2024-02-15T04:20:29;4.68;;;1.80;;
33830;SDS011;20137;48.834;8.732;2024-02-15T04:22:55;4.45;;;1.63;;
33830;SDS011;20137;48.834;8.732;2024-02-15T04:25:23;5.70;;;1.33;;
33830;SDS011;20137;48.834;8.732;2024-02-15T04:27:52;3.85;;;1.25;;
33830;SDS011;20137;48.834;8.732;2024-02-15T04:30:18;2.33;;;1.27;;
33830;SDS011;20137;48.834;8.732;2024-02-15T04:32:45;5.88;;;1.85;;
33830;SDS011;20137;48.834;8.732;2024-02-15T04:35:12;4.47;;;1.67;;
33830;SDS011;20137;48.834;8.732;2024-02-15T04:37:39;5.05;;;1.40;;
33830;SDS011;20137;48.834;8.732;2024-02-15T04:40:05;4.07;;;1.33;;
33830;SDS011;20137;48.834;8.732;2024-02-15T04:42:35;4.13;;;1.10;;
33830;SDS011;20137;48.834;8.732;2024-02-15T04:45:05;5.85;;;1.20;;
33830;SDS011;20137;48.834;8.732;2024-02-15T04:47:36;4.05;;;1.30;;
33830;SDS011;20137;48.834;8.732;2024-02-15T04:50:02;6.40;;;1.42;;
33830;SDS011;20137;48.834;8.732;2024-02-15T04:52:30;5.00;;;1.27;;
33830;SDS011;20137;48.834;8.732;2024-02-15T04:54:56;5.28;;;1.45;;
33830;SDS011;20137;48.834;8.732;2024-02-15T04:57:25;3.08;;;1.27;;
33830;SDS011;20137;48.834;8.732;2024-02-15T04:59:55;7.95;;;1.65;;
33830;SDS011;20137;48.834;8.732;2024-02-15T05:02:21;5.63;;;1.42;;
33830;SDS011;20137;48.834;8.732;2024-02-15T05:04:49;5.10;;;1.40;;
33830;SDS011;20137;48.834;8.732;2024-02-15T05:07:20;7.93;;;2.05;;
33830;SDS011;20137;48.834;8.732;2024-02-15T05:09:47;3.70;;;1.35;;
33830;SDS011;20137;48.834;8.732;2024-02-15T05:12:21;4.20;;;1.30;;
33830;SDS011;20137;48.834;8.732;2024-02-15T05:14:47;8.63;;;1.48;;
33830;SDS011;20137;48.834;8.732;2024-02-15T05:17:13;4.82;;;1.48;;
33830;SDS011;20137;48.834;8.732;2024-02-15T05:19:39;5.15;;;1.38;;
33830;SDS011;20137;48.834;8.732;2024-02-15T05:22:05;2.45;;;1.30;;
33830;SDS011;20137;48.834;8.732;2024-02-15T05:24:31;5.03;;;1.25;;
33830;SDS011;20137;48.834;8.732;2024-02-15T05:26:57;5.13;;;1.45;;
33830;SDS011;20137;48.834;8.732;2024-02-15T05:29:24;5.18;;;1.30;;
33830;SDS011;20137;48.834;8.732;2024-02-15T05:31:50;4.82;;;1.27;;
33830;SDS011;20137;48.834;8.732;2024-02-15T05:34:16;5.00;;;2.25;;
33830;SDS011;20137;48.834;8.732;2024-02-15T05:36:43;5.90;;;1.63;;
33830;SDS011;20137;48.834;8.732;2024-02-15T05:39:09;2.83;;;1.20;;
33830;SDS011;20137;48.834;8.732;2024-02-15T05:41:36;4.28;;;1.27;;
33830;SDS011;20137;48.834;8.732;2024-02-15T05:44:02;7.03;;;1.17;;
33830;SDS011;20137;48.834;8.732;2024-02-15T05:46:32;7.05;;;0.93;;
33830;SDS011;20137;48.834;8.732;2024-02-15T05:49:02;6.18;;;1.42;;
33830;SDS011;20137;48.834;8.732;2024-02-15T05:51:30;5.45;;;1.00;;
33830;SDS011;20137;48.834;8.732;2024-02-15T05:53:57;5.95;;;1.20;;
33830;SDS011;20137;48.834;8.732;2024-02-15T05:56:25;4.82;;;1.30;;
33830;SDS011;20137;48.834;8.732;2024-02-15T05:58:54;3.63;;;1.40;;
33830;SDS011;20137;48.834;8.732;2024-02-15T06:01:20;5.45;;;1.50;;
33830;SDS011;20137;48.834;8.732;2024-02-15T06:03:46;9.25;;;1.90;;
33830;SDS011;20137;48.834;8.732;2024-02-15T06:06:13;6.68;;;2.40;;
33830;SDS011;20137;48.834;8.732;2024-02-15T06:08:39;6.30;;;2.53;;
33830;SDS011;20137;48.834;8.732;2024-02-15T06:11:05;10.45;;;3.22;;
33830;SDS011;20137;48.834;8.732;2024-02-15T06:13:32;5.60;;;1.95;;
33830;SDS011;20137;48.834;8.732;2024-02-15T06:15:58;7.35;;;3.30;;
33830;SDS011;20137;48.834;8.732;2024-02-15T06:18:24;6.57;;;2.92;;
33830;SDS011;20137;48.834;8.732;2024-02-15T06:20:52;5.50;;;1.80;;
33830;SDS011;20137;48.834;8.732;2024-02-15T06:23:18;3.20;;;1.48;;
33830;SDS011;20137;48.834;8.732;2024-02-15T06:25:45;3.55;;;1.50;;
33830;SDS011;20137;48.834;8.732;2024-02-15T06:28:12;5.25;;;1.35;;
33830;SDS011;20137;48.834;8.732;2024-02-15T06:30:44;6.32;;;1.67;;
33830;SDS011;20137;48.834;8.732;2024-02-15T06:33:29;4.93;;;1.52;;
33830;SDS011;20137;48.834;8.732;2024-02-15T06:36:14;4.65;;;1.50;;
33830;SDS011;20137;48.834;8.732;2024-02-15T06:38:58;5.43;;;1.73;;
33830;SDS011;20137;48.834;8.732;2024-02-15T06:41:43;4.15;;;1.77;;
33830;SDS011;20137;48.834;8.732;2024-02-15T06:44:09;5.53;;;1.77;;
33830;SDS011;20137;48.834;8.732;2024-02-15T06:46:35;5.93;;;1.95;;
33830;SDS011;20137;48.834;8.732;2024-02-15T06:49:01;3.22;;;1.45;;
33830;SDS011;20137;48.834;8.732;2024-02-15T06:51:29;4.63;;;1.58;;
33830;SDS011;20137;48.834;8.732;2024-02-15T06:53:55;5.68;;;1.95;;
33830;SDS011;20137;48.834;8.732;2024-02-15T06:56:22;4.80;;;2.33;;
33830;SDS011;20137;48.834;8.732;2024-02-15T06:58:49;4.93;;;1.92;;
33830;SDS011;20137;48.834;8.732;2024-02-15T07:01:15;5.63;;;1.98;;
33830;SDS011;20137;48.834;8.732;2024-02-15T07:03:42;4.45;;;1.60;;
33830;SDS011;20137;48.834;8.732;2024-02-15T07:06:10;6.53;;;1.60;;
33830;SDS011;20137;48.834;8.732;2024-02-15T07:08:38;4.70;;;1.60;;
33830;SDS011;20137;48.834;8.732;2024-02-15T07:11:05;7.35;;;1.77;;
33830;SDS011;20137;48.834;8.732;2024-02-15T07:13:34;4.03;;;1.23;;
33830;SDS011;20137;48.834;8.732;2024-02-15T07:16:00;9.50;;;2.25;;
33830;SDS011;20137;48.834;8.732;2024-02-15T07:18:26;5.25;;;1.23;;
33830;SDS011;20137;48.834;8.732;2024-02-15T07:20:52;3.70;;;1.80;;
33830;SDS011;20137;48.834;8.732;2024-02-15T07:23:18;8.02;;;2.33;;
33830;SDS011;20137;48.834;8.732;2024-02-15T07:25:45;7.90;;;2.30;;
33830;SDS011;20137;48.834;8.732;2024-02-15T07:28:13;11.57;;;2.53;;
33830;SDS011;20137;48.834;8.732;2024-02-15T07:30:39;6.25;;;1.73;;
33830;SDS011;20137;48.834;8.732;2024-02-15T07:33:05;5.82;;;1.50;;
33830;SDS011;20137;48.834;8.732;2024-02-15T07:35:32;4.53;;;1.67;;
33830;SDS011;20137;48.834;8.732;2024-02-15T07:37:58;2.72;;;1.30;;
33830;SDS011;20137;48.834;8.732;2024-02-15T07:40:26;8.27;;;1.70;;
33830;SDS011;20137;48.834;8.732;2024-02-15T07:42:56;4.68;;;1.50;;
33830;SDS011;20137;48.834;8.732;2024-02-15T07:45:23;5.35;;;1.92;;
33830;SDS011;20137;48.834;8.732;2024-02-15T07:47:49;7.80;;;1.88;;
33830;SDS011;20137;48.834;8.732;2024-02-15T07:50:18;5.65;;;1.67;;
33830;SDS011;20137;48.834;8.732;2024-02-15T07:52:46;8.43;;;1.83;;
33830;SDS011;20137;48.834;8.732;2024-02-15T07:55:13;8.68;;;1.65;;
33830;SDS011;20137;48.834;8.732;2024-02-15T07:57:39;4.38;;;1.60;;
33830;SDS011;20137;48.834;8.732;2024-02-15T08:00:05;5.72;;;1.52;;
33830;SDS011;20137;48.834;8.732;2024-02-15T08:02:35;8.70;;;1.75;;
33830;SDS011;20137;48.834;8.732;2024-02-15T08:05:01;5.22;;;1.60;;
33830;SDS011;20137;48.834;8.732;2024-02-15T08:07:31;5.32;;;1.85;;
33830;SDS011;20137;48.834;8.732;2024-02-15T08:09:58;3.88;;;1.52;;
33830;SDS011;20137;48.834;8.732;2024-02-15T08:12:24;6.93;;;1.50;;
33830;SDS011;20137;48.834;8.732;2024-02-15T08:14:51;5.82;;;1.55;;
33830;SDS011;20137;48.834;8.732;2024-02-15T08:17:17;3.92;;;1.70;;
33830;SDS011;20137;48.834;8.732;2024-02-15T08:19:43;4.93;;;1.50;;
33830;SDS011;20137;48.834;8.732;2024-02-15T08:22:09;6.32;;;1.50;;
33830;SDS011;20137;48.834;8.732;2024-02-15T08:24:36;7.40;;;1.73;;
33830;SDS011;20137;48.834;8.732;2024-02-15T08:27:02;5.95;;;2.25;;
33830;SDS011;20137;48.834;8.732;2024-02-15T08:29:29;4.38;;;1.45;;
33830;SDS011;20137;48.834;8.732;2024-02-15T08:31:56;3.70;;;1.40;;
33830;SDS011;20137;48.834;8.732;2024-02-15T08:34:23;5.40;;;1.80;;
33830;SDS011;20137;48.834;8.732;2024-02-15T08:36:49;4.55;;;2.00;;
33830;SDS011;20137;48.834;8.732;2024-02-15T08:39:16;4.80;;;1.50;;
33830;SDS011;20137;48.834;8.732;2024-02-15T08:41:42;5.35;;;1.90;;
33830;SDS011;20137;48.834;8.732;2024-02-15T08:44:08;8.85;;;2.13;;
33830;SDS011;20137;48.834;8.732;2024-02-15T08:46:37;5.05;;;1.85;;
33830;SDS011;20137;48.834;8.732;2024-02-15T08:49:03;10.38;;;2.10;;
33830;SDS011;20137;48.834;8.732;2024-02-15T08:51:29;5.13;;;1.77;;
33830;SDS011;20137;48.834;8.732;2024-02-15T08:53:55;5.95;;;1.73;;
33830;SDS011;20137;48.834;8.732;2024-02-15T08:56:21;4.65;;;1.90;;
33830;SDS011;20137;48.834;8.732;2024-02-15T08:58:51;5.40;;;1.60;;
33830;SDS011;20137;48.834;8.732;2024-02-15T09:01:17;7.25;;;1.73;;
33830;SDS011;20137;48.834;8.732;2024-02-15T09:03:43;4.28;;;1.67;;
33830;SDS011;20137;48.834;8.732;2024-02-15T09:06:10;6.80;;;1.70;;
33830;SDS011;20137;48.834;8.732;2024-02-15T09:08:36;4.85;;;2.00;;
33830;SDS011;20137;48.834;8.732;2024-02-15T09:11:03;5.25;;;1.50;;
33830;SDS011;20137;48.834;8.732;2024-02-15T09:13:29;7.15;;;1.75;;
33830;SDS011;20137;48.834;8.732;2024-02-15T09:15:55;7.15;;;2.17;;
33830;SDS011;20137;48.834;8.732;2024-02-15T09:18:21;5.03;;;1.70;;
33830;SDS011;20137;48.834;8.732;2024-02-15T09:20:50;5.03;;;1.38;;
33830;SDS011;20137;48.834;8.732;2024-02-15T09:23:20;3.88;;;1.30;;
33830;SDS011;20137;48.834;8.732;2024-02-15T09:25:48;6.10;;;1.75;;
33830;SDS011;20137;48.834;8.732;2024-02-15T09:28:16;4.05;;;1.38;;
33830;SDS011;20137;48.834;8.732;2024-02-15T09:30:47;5.07;;;2.13;;
33830;SDS011;20137;48.834;8.732;2024-02-15T09:33:13;2.55;;;1.50;;
33830;SDS011;20137;48.834;8.732;2024-02-15T09:35:39;4.20;;;1.65;;
33830;SDS011;20137;48.834;8.732;2024-02-15T09:38:05;5.35;;;1.70;;
33830;SDS011;20137;48.834;8.732;2024-02-15T09:40:31;4.88;;;1.77;;
33830;SDS011;20137;48.834;8.732;2024-02-15T09:42:59;3.13;;;1.70;;
33830;SDS011;20137;48.834;8.732;2024-02-15T09:45:25;4.43;;;1.23;;
33830;SDS011;20137;48.834;8.732;2024-02-15T09:47:51;4.20;;;1.40;;
33830;SDS011;20137;48.834;8.732;2024-02-15T09:50:18;3.60;;;1.10;;
33830;SDS011;20137;48.834;8.732;2024-02-15T09:52:45;5.70;;;1.92;;
33830;SDS011;20137;48.834;8.732;2024-02-15T09:55:11;5.35;;;1.70;;
33830;SDS011;20137;48.834;8.732;2024-02-15T09:57:41;5.57;;;1.63;;
33830;SDS011;20137;48.834;8.732;2024-02-15T10:00:08;3.15;;;1.27;;
33830;SDS011;20137;48.834;8.732;2024-02-15T10:02:38;4.95;;;1.35;;
33830;SDS011;20137;48.834;8.732;2024-02-15T10:05:05;6.10;;;1.40;;
33830;SDS011;20137;48.834;8.732;2024-02-15T10:07:36;3.67;;;1.50;;
33830;SDS011;20137;48.834;8.732;2024-02-15T10:10:18;3.45;;;1.23;;
33830;SDS011;20137;48.834;8.732;2024-02-15T10:12:48;3.92;;;1.20;;
33830;SDS011;20137;48.834;8.732;2024-02-15T10:17:55;3.60;;;1.40;;
33830;SDS011;20137;48.834;8.732;2024-02-15T10:20:21;4.50;;;1.17;;
33830;SDS011;20137;48.834;8.732;2024-02-15T10:22:52;5.18;;;1.50;;
33830;SDS011;20137;48.834;8.732;2024-02-15T10:25:19;4.18;;;1.13;;
33830;SDS011;20137;48.834;8.732;2024-02-15T10:27:47;3.55;;;1.10;;
33830;SDS011;20137;48.834;8.732;2024-02-15T10:30:14;4.45;;;1.17;;
33830;SDS011;20137;48.834;8.732;2024-02-15T10:32:40;2.25;;;1.00;;
33830;SDS011;20137;48.834;8.732;2024-02-15T10:35:07;3.22;;;1.10;;
33830;SDS011;20137;48.834;8.732;2024-02-15T10:37:33;2.05;;;1.00;;
33830;SDS011;20137;48.834;8.732;2024-02-15T10:40:03;2.22;;;1.13;;
33830;SDS011;20137;48.834;8.732;2024-02-15T10:42:32;3.30;;;0.98;;
33830;SDS011;20137;48.834;8.732;2024-02-15T10:45:04;4.78;;;1.13;;
33830;SDS011;20137;48.834;8.732;2024-02-15T10:47:31;2.65;;;1.05;;
33830;SDS011;20137;48.834;8.732;2024-02-15T10:49:57;4.97;;;1.42;;
33830;SDS011;20137;48.834;8.732;2024-02-15T10:52:24;4.32;;;1.05;;
33830;SDS011;20137;48.834;8.732;2024-02-15T10:55:04;5.32;;;1.42;;
33830;SDS011;20137;48.834;8.732;2024-02-15T10:57:34;5.20;;;1.20;;
33830;SDS011;20137;48.834;8.732;2024-02-15T11:00:04;3.03;;;1.00;;
33830;SDS011;20137;48.834;8.732;2024-02-15T11:03:01;3.10;;;0.95;;
33830;SDS011;20137;48.834;8.732;2024-02-15T11:05:29;5.30;;;1.20;;
33830;SDS011;20137;48.834;8.732;2024-02-15T11:07:57;2.22;;;1.02;;
33830;SDS011;20137;48.834;8.732;2024-02-15T11:10:24;3.50;;;1.27;;
33830;SDS011;20137;48.834;8.732;2024-02-15T11:12:50;4.43;;;1.23;;
33830;SDS011;20137;48.834;8.732;2024-02-15T11:15:39;4.65;;;1.25;;
33830;SDS011;20137;48.834;8.732;2024-02-15T11:18:04;5.57;;;1.40;;
33830;SDS011;20137;48.834;8.732;2024-02-15T11:22:58;5.13;;;1.42;;
33830;SDS011;20137;48.834;8.732;2024-02-15T11:25:42;3.78;;;1.13;;
33830;SDS011;20137;48.834;8.732;2024-02-15T11:28:34;1.95;;;0.82;;
33830;SDS011;20137;48.834;8.732;2024-02-15T11:31:02;2.80;;;0.98;;
33830;SDS011;20137;48.834;8.732;2024-02-15T11:33:29;4.15;;;1.20;;
33830;SDS011;20137;48.834;8.732;2024-02-15T11:36:08;4.30;;;1.00;;
33830;SDS011;20137;48.834;8.732;2024-02-15T11:38:35;7.20;;;1.10;;
33830;SDS011;20137;48.834;8.732;2024-02-15T11:41:02;2.17;;;0.93;;
33830;SDS011;20137;48.834;8.732;2024-02-15T11:46:05;4.47;;;1.08;;
33830;SDS011;20137;48.834;8.732;2024-02-15T11:48:31;2.50;;;1.50;;
33830;SDS011;20137;48.834;8.732;2024-02-15T11:51:04;3.65;;;1.45;;
33830;SDS011;20137;48.834;8.732;2024-02-15T11:53:31;4.07;;;1.40;;
33830;SDS011;20137;48.834;8.732;2024-02-15T11:56:00;5.78;;;1.45;;
33830;SDS011;20137;48.834;8.732;2024-02-15T11:58:30;2.60;;;1.13;;
33830;SDS011;20137;48.834;8.732;2024-02-15T12:01:17;3.05;;;1.33;;
33830;SDS011;20137;48.834;8.732;2024-02-15T12:04:02;4.57;;;1.70;;
33830;SDS011;20137;48.834;8.732;2024-02-15T12:06:47;4.18;;;1.45;;
33830;SDS011;20137;48.834;8.732;2024-02-15T12:09:32;1.77;;;1.15;;
33830;SDS011;20137;48.834;8.732;2024-02-15T12:12:16;2.97;;;1.20;;
33830;SDS011;20137;48.834;8.732;2024-02-15T12:15:04;3.38;;;1.20;;
33830;SDS011;20137;48.834;8.732;2024-02-15T12:17:49;3.72;;;1.40;;
33830;SDS011;20137;48.834;8.732;2024-02-15T12:20:33;4.50;;;1.75;;
33830;SDS011;20137;48.834;8.732;2024-02-15T12:22:59;2.38;;;1.10;;
33830;SDS011;20137;48.834;8.732;2024-02-15T12:25:25;4.20;;;1.40;;
33830;SDS011;20137;48.834;8.732;2024-02-15T12:27:52;2.40;;;1.42;;
33830;SDS011;20137;48.834;8.732;2024-02-15T12:30:19;5.72;;;1.30;;
33830;SDS011;20137;48.834;8.732;2024-02-15T12:32:47;2.95;;;1.30;;
33830;SDS011;20137;48.834;8.732;2024-02-15T12:35:13;3.90;;;1.33;;
33830;SDS011;20137;48.834;8.732;2024-02-15T12:37:47;4.15;;;1.55;;
33830;SDS011;20137;48.834;8.732;2024-02-15T12:40:17;3.05;;;1.67;;
33830;SDS011;20137;48.834;8.732;2024-02-15T12:42:43;1.92;;;1.10;;
33830;SDS011;20137;48.834;8.732;2024-02-15T12:45:24;5.15;;;1.58;;
33830;SDS011;20137;48.834;8.732;2024-02-15T12:47:52;5.18;;;1.65;;
33830;SDS011;20137;48.834;8.732;2024-02-15T12:50:22;4.60;;;1.55;;
33830;SDS011;20137;48.834;8.732;2024-02-15T12:52:50;2.65;;;1.40;;
33830;SDS011;20137;48.834;8.732;2024-02-15T12:55:18;3.72;;;1.58;;
33830;SDS011;20137;48.834;8.732;2024-02-15T12:57:46;2.92;;;1.65;;
33830;SDS011;20137;48.834;8.732;2024-02-15T13:00:20;3.72;;;2.08;;
33830;SDS011;20137;48.834;8.732;2024-02-15T13:02:50;2.58;;;1.50;;
33830;SDS011;20137;48.834;8.732;2024-02-15T13:05:18;4.78;;;2.22;;
33830;SDS011;20137;48.834;8.732;2024-02-15T13:07:47;5.15;;;2.05;;
33830;SDS011;20137;48.834;8.732;2024-02-15T13:10:13;3.58;;;1.35;;
33830;SDS011;20137;48.834;8.732;2024-02-15T13:12:40;3.50;;;1.60;;
33830;SDS011;20137;48.834;8.732;2024-02-15T13:15:06;3.53;;;1.40;;
33830;SDS011;20137;48.834;8.732;2024-02-15T13:17:36;5.15;;;1.73;;
33830;SDS011;20137;48.834;8.732;2024-02-15T13:20:02;6.68;;;2.00;;
33830;SDS011;20137;48.834;8.732;2024-02-15T13:22:32;4.60;;;1.55;;
33830;SDS011;20137;48.834;8.732;2024-02-15T13:25:01;3.78;;;1.60;;
33830;SDS011;20137;48.834;8.732;2024-02-15T13:27:28;3.95;;;1.73;;
33830;SDS011;20137;48.834;8.732;2024-02-15T13:29:54;5.05;;;1.33;;
33830;SDS011;20137;48.834;8.732;2024-02-15T13:32:20;3.50;;;1.70;;
33830;SDS011;20137;48.834;8.732;2024-02-15T13:34:47;5.22;;;2.45;;
33830;SDS011;20137;48.834;8.732;2024-02-15T13:37:18;7.90;;;3.08;;
33830;SDS011;20137;48.834;8.732;2024-02-15T13:39:45;12.80;;;4.55;;
33830;SDS011;20137;48.834;8.732;2024-02-15T13:42:11;7.70;;;3.10;;
33830;SDS011;20137;48.834;8.732;2024-02-15T13:44:37;5.50;;;2.63;;
33830;SDS011;20137;48.834;8.732;2024-02-15T13:47:03;4.90;;;2.25;;
33830;SDS011;20137;48.834;8.732;2024-02-15T13:49:30;3.45;;;1.30;;
33830;SDS011;20137;48.834;8.732;2024-02-15T13:51:57;4.15;;;1.98;;
33830;SDS011;20137;48.834;8.732;2024-02-15T13:54:27;3.40;;;2.45;;
33830;SDS011;20137;48.834;8.732;2024-02-15T13:56:54;5.07;;;1.83;;
33830;SDS011;20137;48.834;8.732;2024-02-15T13:59:20;4.07;;;1.73;;
33830;SDS011;20137;48.834;8.732;2024-02-15T14:01:46;5.15;;;1.95;;
33830;SDS011;20137;48.834;8.732;2024-02-15T14:04:12;3.35;;;1.85;;
33830;SDS011;20137;48.834;8.732;2024-02-15T14:06:38;5.72;;;2.17;;
33830;SDS011;20137;48.834;8.732;2024-02-15T14:09:09;4.53;;;2.17;;
33830;SDS011;20137;48.834;8.732;2024-02-15T14:11:36;4.45;;;1.95;;
33830;SDS011;20137;48.834;8.732;2024-02-15T14:14:03;2.65;;;1.88;;
33830;SDS011;20137;48.834;8.732;2024-02-15T14:16:30;5.05;;;1.80;;
33830;SDS011;20137;48.834;8.732;2024-02-15T14:18:56;4.68;;;1.67;;
33830;SDS011;20137;48.834;8.732;2024-02-15T14:21:22;5.25;;;1.75;;
33830;SDS011;20137;48.834;8.732;2024-02-15T14:23:48;4.90;;;1.75;;
33830;SDS011;20137;48.834;8.732;2024-02-15T14:26:14;5.65;;;1.67;;
33830;SDS011;20137;48.834;8.732;2024-02-15T14:28:42;4.47;;;1.77;;
33830;SDS011;20137;48.834;8.732;2024-02-15T14:31:09;8.88;;;2.58;;
33830;SDS011;20137;48.834;8.732;2024-02-15T14:36:20;4.80;;;3.03;;
33830;SDS011;20137;48.834;8.732;2024-02-15T14:38:46;5.72;;;2.70;;
33830;SDS011;20137;48.834;8.732;2024-02-15T14:41:12;6.00;;;2.65;;
33830;SDS011;20137;48.834;8.732;2024-02-15T14:43:38;4.20;;;2.30;;
33830;SDS011;20137;48.834;8.732;2024-02-15T14:46:04;8.25;;;2.60;;
33830;SDS011;20137;48.834;8.732;2024-02-15T14:48:32;4.05;;;2.08;;
33830;SDS011;20137;48.834;8.732;2024-02-15T14:50:59;3.70;;;1.98;;
33830;SDS011;20137;48.834;8.732;2024-02-15T14:53:25;9.57;;;2.53;;
33830;SDS011;20137;48.834;8.732;2024-02-15T14:55:54;4.00;;;2.50;;
33830;SDS011;20137;48.834;8.732;2024-02-15T14:58:21;5.57;;;2.67;;
33830;SDS011;20137;48.834;8.732;2024-02-15T15:00:47;6.35;;;2.35;;
33830;SDS011;20137;48.834;8.732;2024-02-15T15:03:14;6.05;;;3.20;;